createdAt,value
2018-05-13T00:00:20.240Z,80.86
2018-05-13T00:02:47.852Z,80.82
2018-05-13T00:05:15.574Z,80.81
2018-05-13T00:07:43.155Z,81.08
2018-05-13T00:10:10.909Z,81.40
2018-05-13T00:12:38.560Z,81.65
2018-05-13T00:15:06.210Z,81.62
2018-05-13T00:17:33.850Z,81.44
2018-05-13T00:20:01.550Z,82.15
2018-05-13T00:22:29.264Z,82.03
2018-05-13T00:24:56.867Z,82.49
2018-05-13T00:27:24.535Z,82.03
2018-05-13T00:29:52.200Z,82.56
2018-05-13T00:32:19.876Z,82.67
2018-05-13T00:34:47.662Z,81.76
2018-05-13T00:37:15.321Z,81.82
2018-05-13T00:39:42.980Z,81.51
2018-05-13T00:42:10.677Z,81.25
2018-05-13T00:44:38.345Z,81.70
2018-05-13T00:47:05.951Z,81.77
2018-05-13T00:49:33.567Z,82.01
2018-05-13T00:52:01.233Z,82.62
2018-05-13T00:54:40.599Z,82.28
2018-05-13T00:57:08.320Z,83.57
2018-05-13T00:59:35.911Z,83.50
2018-05-13T01:02:03.560Z,83.38
2018-05-13T01:04:31.152Z,83.95
2018-05-13T01:06:58.803Z,83.15
2018-05-13T01:09:27.374Z,82.79
2018-05-13T01:11:55.044Z,82.71
2018-05-13T01:14:22.744Z,82.94
2018-05-13T01:16:50.461Z,83.51
2018-05-13T01:19:18.105Z,83.45
2018-05-13T01:21:45.789Z,84.10
2018-05-13T01:24:13.432Z,84.29
2018-05-13T01:26:41.104Z,85.83
2018-05-13T01:29:08.712Z,85.57
2018-05-13T01:31:36.467Z,86.12
2018-05-13T01:34:04.107Z,85.51
2018-05-13T01:36:31.754Z,85.54
2018-05-13T01:38:59.366Z,84.90
2018-05-13T01:41:27.038Z,84.21
2018-05-13T01:43:54.669Z,84.44
2018-05-13T01:46:22.313Z,84.48
2018-05-13T01:48:50.998Z,84.19
2018-05-13T01:51:18.653Z,84.54
2018-05-13T01:53:46.325Z,84.92
2018-05-13T01:56:14.108Z,85.48
2018-05-13T01:58:41.763Z,85.13
2018-05-13T02:01:09.344Z,85.28
2018-05-13T02:03:36.977Z,85.56
2018-05-13T02:06:04.684Z,84.39
2018-05-13T02:08:32.306Z,84.30
2018-05-13T02:11:00.014Z,84.23
2018-05-13T02:13:27.629Z,84.30
2018-05-13T02:15:55.229Z,84.33
2018-05-13T02:18:22.881Z,84.96
2018-05-13T02:20:50.519Z,84.78
2018-05-13T02:23:18.176Z,83.97
2018-05-13T02:25:45.829Z,83.84
2018-05-13T02:28:13.494Z,84.68
2018-05-13T02:30:41.085Z,84.72
2018-05-13T02:33:08.713Z,84.46
2018-05-13T02:35:36.334Z,84.27
2018-05-13T02:38:04.040Z,84.23
2018-05-13T02:40:31.707Z,83.66
2018-05-13T02:42:59.401Z,83.39
2018-05-13T02:45:27.124Z,83.73
2018-05-13T02:47:54.766Z,84.94
2018-05-13T02:50:22.423Z,84.57
2018-05-13T02:52:50.073Z,84.66
2018-05-13T02:55:17.739Z,85.05
2018-05-13T02:57:45.448Z,85.04
2018-05-13T03:00:13.114Z,85.94
2018-05-13T03:02:40.867Z,87.31
2018-05-13T03:05:08.561Z,86.36
2018-05-13T03:07:36.972Z,86.36
2018-05-13T03:10:04.683Z,86.00
2018-05-13T03:12:32.280Z,85.35
2018-05-13T03:14:59.938Z,85.51
2018-05-13T03:17:27.655Z,85.57
2018-05-13T03:19:55.353Z,85.13
2018-05-13T03:22:23.004Z,85.16
2018-05-13T03:24:50.987Z,84.75
2018-05-13T03:27:18.658Z,84.17
2018-05-13T03:29:46.265Z,84.17
2018-05-13T03:32:14.143Z,84.52
2018-05-13T03:34:41.770Z,85.54
2018-05-13T03:37:09.444Z,85.51
2018-05-13T03:39:37.049Z,85.65
2018-05-13T03:42:04.707Z,86.11
2018-05-13T03:44:32.355Z,85.61
2018-05-13T03:47:00.012Z,85.56
2018-05-13T03:49:27.600Z,85.01
2018-05-13T03:51:55.294Z,85.41
2018-05-13T03:54:23.084Z,86.98
2018-05-13T03:56:51.027Z,87.51
2018-05-13T03:59:18.865Z,87.22
2018-05-13T04:01:46.463Z,86.83
2018-05-13T04:04:14.127Z,85.88
2018-05-13T04:06:42.688Z,86.50
2018-05-13T04:09:21.941Z,86.52
2018-05-13T04:12:01.237Z,86.88
2018-05-13T04:14:40.461Z,86.76
2018-05-13T04:17:08.159Z,86.42
2018-05-13T04:19:35.786Z,87.41
2018-05-13T04:22:03.421Z,87.24
2018-05-13T04:24:31.051Z,87.32
2018-05-13T04:26:58.719Z,86.42
2018-05-13T04:29:26.368Z,85.82
2018-05-13T04:31:53.969Z,86.06
2018-05-13T04:34:21.611Z,85.87
2018-05-13T04:36:49.734Z,85.35
2018-05-13T04:39:17.341Z,85.16
2018-05-13T04:41:45.029Z,85.00
2018-05-13T04:44:12.673Z,85.07
2018-05-13T04:46:40.395Z,85.26
2018-05-13T04:49:07.988Z,85.34
2018-05-13T04:51:35.620Z,84.43
2018-05-13T04:54:03.262Z,83.51
2018-05-13T04:56:30.938Z,84.18
2018-05-13T04:58:58.598Z,83.67
2018-05-13T05:01:27.424Z,82.97
2018-05-13T05:03:55.105Z,82.23
2018-05-13T05:06:22.776Z,82.31
2018-05-13T05:08:50.490Z,81.24
2018-05-13T05:11:18.073Z,81.32
2018-05-13T05:13:45.749Z,80.42
2018-05-13T05:16:13.350Z,79.99
2018-05-13T05:18:41.001Z,80.14
2018-05-13T05:21:08.691Z,80.05
2018-05-13T05:23:36.370Z,79.16
2018-05-13T05:26:04.110Z,78.95
2018-05-13T05:28:31.704Z,79.28
2018-05-13T05:30:59.347Z,77.89
2018-05-13T05:33:26.998Z,76.87
2018-05-13T05:35:54.640Z,77.79
2018-05-13T05:38:22.351Z,77.21
2018-05-13T05:40:49.964Z,75.54
2018-05-13T05:43:17.686Z,75.43
2018-05-13T05:45:45.349Z,74.47
2018-05-13T05:48:13.019Z,74.73
2018-05-13T05:50:40.979Z,74.27
2018-05-13T05:53:08.589Z,73.87
2018-05-13T05:55:36.271Z,75.17
2018-05-13T05:58:03.935Z,75.71
2018-05-13T06:00:31.585Z,76.20
2018-05-13T06:02:59.304Z,76.79
2018-05-13T06:05:26.962Z,74.60
2018-05-13T06:07:54.654Z,73.72
2018-05-13T06:10:22.296Z,72.90
2018-05-13T06:12:50.011Z,71.76
2018-05-13T06:15:17.698Z,70.31
2018-05-13T06:17:45.326Z,70.18
2018-05-13T06:20:12.974Z,70.54
2018-05-13T06:22:40.620Z,71.72
2018-05-13T06:25:09.228Z,71.89
2018-05-13T06:27:36.819Z,71.12
2018-05-13T06:30:04.562Z,71.29
2018-05-13T06:32:33.245Z,71.38
2018-05-13T06:35:01.288Z,72.56
2018-05-13T06:37:29.052Z,70.20
2018-05-13T06:39:56.750Z,71.38
2018-05-13T06:42:24.465Z,71.93
2018-05-13T06:44:52.120Z,71.03
2018-05-13T06:47:20.039Z,68.98
2018-05-13T06:49:47.670Z,68.80
2018-05-13T06:52:15.354Z,69.02
2018-05-13T06:54:43.030Z,68.97
2018-05-13T06:57:10.837Z,68.24
2018-05-13T06:59:38.451Z,66.89
2018-05-13T07:02:06.486Z,65.95
2018-05-13T07:04:34.206Z,63.86
2018-05-13T07:07:01.908Z,63.66
2018-05-13T07:09:29.605Z,62.01
2018-05-13T07:11:57.267Z,63.27
2018-05-13T07:14:24.928Z,59.11
2018-05-13T07:16:52.624Z,59.89
2018-05-13T07:19:20.259Z,60.76
2018-05-13T07:21:47.935Z,60.00
2018-05-13T07:24:15.564Z,61.53
2018-05-13T07:26:48.526Z,60.30
2018-05-13T07:29:16.242Z,60.82
2018-05-13T07:31:43.893Z,59.63
2018-05-13T07:34:11.610Z,60.10
2018-05-13T07:36:39.279Z,59.45
2018-05-13T07:39:06.944Z,60.50
2018-05-13T07:41:34.635Z,60.68
2018-05-13T07:44:03.096Z,62.02
2018-05-13T07:46:30.881Z,61.33
2018-05-13T07:48:58.650Z,60.56
2018-05-13T07:51:26.329Z,58.85
2018-05-13T07:53:54.014Z,59.35
2018-05-13T07:56:21.697Z,59.76
2018-05-13T07:58:49.825Z,59.36
2018-05-13T08:01:17.452Z,57.23
2018-05-13T08:03:45.117Z,57.71
2018-05-13T08:06:12.837Z,56.86
2018-05-13T08:08:40.441Z,56.00
2018-05-13T08:11:08.049Z,56.06
2018-05-13T08:13:35.729Z,56.91
2018-05-13T08:16:03.376Z,56.75
2018-05-13T08:18:31.020Z,55.02
2018-05-13T08:20:58.682Z,55.72
2018-05-13T08:23:26.328Z,54.18
2018-05-13T08:25:54.060Z,54.10
2018-05-13T08:28:21.721Z,52.79
2018-05-13T08:30:49.380Z,54.16
2018-05-13T08:33:17.029Z,55.23
2018-05-13T08:35:44.727Z,54.53
2018-05-13T08:38:12.443Z,52.02
2018-05-13T08:40:40.172Z,51.95
2018-05-13T08:43:07.853Z,51.52
2018-05-13T08:45:35.557Z,52.34
2018-05-13T08:48:03.441Z,50.66
2018-05-13T08:50:31.189Z,50.63
2018-05-13T08:52:58.896Z,50.49
2018-05-13T08:55:26.633Z,50.31
2018-05-13T08:57:54.311Z,47.85
2018-05-13T09:00:22.425Z,49.86
2018-05-13T09:02:50.148Z,48.55
2018-05-13T09:05:18.470Z,46.15
2018-05-13T09:07:46.133Z,47.03
2018-05-13T09:10:14.862Z,48.52
2018-05-13T09:12:42.568Z,47.27
2018-05-13T09:15:10.232Z,47.14
2018-05-13T09:17:37.858Z,46.08
2018-05-13T09:20:05.560Z,45.62
2018-05-13T09:22:33.189Z,44.59
2018-05-13T09:25:00.872Z,43.91
2018-05-13T09:27:28.495Z,45.08
2018-05-13T09:29:56.239Z,43.09
2018-05-13T09:32:23.980Z,43.89
2018-05-13T09:34:51.649Z,43.81
2018-05-13T09:37:19.313Z,43.54
2018-05-13T09:39:46.973Z,42.49
2018-05-13T09:42:14.693Z,43.50
2018-05-13T09:44:42.331Z,44.99
2018-05-13T09:47:10.002Z,42.96
2018-05-13T09:49:37.780Z,42.60
2018-05-13T09:52:05.416Z,43.58
2018-05-13T09:54:33.062Z,41.13
2018-05-13T09:57:00.657Z,40.62
2018-05-13T09:59:28.309Z,42.46
2018-05-13T10:01:55.941Z,42.93
2018-05-13T10:04:24.710Z,43.30
2018-05-13T10:06:52.390Z,44.82
2018-05-13T10:09:20.059Z,41.98
2018-05-13T10:11:47.768Z,41.52
2018-05-13T10:14:15.366Z,41.15
2018-05-13T10:16:42.951Z,40.64
2018-05-13T10:19:10.612Z,38.97
2018-05-13T10:21:38.222Z,40.81
2018-05-13T10:24:05.905Z,42.81
2018-05-13T10:26:33.629Z,40.73
2018-05-13T10:29:01.353Z,40.21
2018-05-13T10:31:28.949Z,40.81
2018-05-13T10:33:56.572Z,39.64
2018-05-13T10:36:24.248Z,40.04
2018-05-13T10:38:51.844Z,38.81
2018-05-13T10:41:19.569Z,39.49
2018-05-13T10:43:47.203Z,39.27
2018-05-13T10:46:14.948Z,40.06
2018-05-13T10:48:42.629Z,40.06
2018-05-13T10:51:10.337Z,39.59
2018-05-13T10:53:37.971Z,39.01
2018-05-13T10:56:05.626Z,36.91
2018-05-13T10:58:33.275Z,38.76
2018-05-13T11:01:00.902Z,37.96
2018-05-13T11:03:28.559Z,39.95
2018-05-13T11:05:56.215Z,38.64
2018-05-13T11:08:23.855Z,39.57
2018-05-13T11:10:51.511Z,39.99
2018-05-13T11:13:19.217Z,39.41
2018-05-13T11:15:46.892Z,40.32
2018-05-13T11:18:14.535Z,37.88
2018-05-13T11:20:42.259Z,39.20
2018-05-13T11:23:09.919Z,40.18
2018-05-13T11:25:37.563Z,41.37
2018-05-13T11:28:05.421Z,41.24
2018-05-13T11:30:33.419Z,41.14
2018-05-13T11:33:01.096Z,39.02
2018-05-13T11:35:28.687Z,40.55
2018-05-13T11:37:56.351Z,40.12
2018-05-13T11:40:23.965Z,42.88
2018-05-13T11:42:51.670Z,44.88
2018-05-13T11:45:19.276Z,46.05
2018-05-13T11:47:46.905Z,44.96
2018-05-13T11:50:14.607Z,43.35
2018-05-13T11:52:43.407Z,43.02
2018-05-13T11:55:11.080Z,43.52
2018-05-13T11:57:38.778Z,41.51
2018-05-13T12:00:06.441Z,40.14
2018-05-13T12:02:34.091Z,43.08
2018-05-13T12:05:01.788Z,38.49
2018-05-13T12:07:29.379Z,39.38
2018-05-13T12:09:57.146Z,39.64
2018-05-13T12:12:24.728Z,38.81
2018-05-13T12:14:52.379Z,38.17
2018-05-13T12:17:20.128Z,35.00
2018-05-13T12:19:47.769Z,36.78
2018-05-13T12:22:15.428Z,34.63
2018-05-13T12:24:43.033Z,35.26
2018-05-13T12:27:10.799Z,34.95
2018-05-13T12:29:38.469Z,36.13
2018-05-13T12:32:06.070Z,32.83
2018-05-13T12:34:34.805Z,35.38
2018-05-13T12:37:02.690Z,33.56
2018-05-13T12:39:30.295Z,35.17
2018-05-13T12:41:57.950Z,36.85
2018-05-13T12:44:25.587Z,35.56
2018-05-13T12:46:53.238Z,37.38
2018-05-13T12:49:20.920Z,34.38
2018-05-13T12:51:48.640Z,34.01
2018-05-13T12:54:16.315Z,33.78
2018-05-13T12:56:44.003Z,35.39
2018-05-13T12:59:11.645Z,37.56
2018-05-13T13:01:39.275Z,37.01
2018-05-13T13:04:06.964Z,35.86
2018-05-13T13:06:34.565Z,34.38
2018-05-13T13:09:02.261Z,32.82
2018-05-13T13:11:29.921Z,34.77
2018-05-13T13:13:57.604Z,33.63
2018-05-13T13:16:25.363Z,33.84
2018-05-13T13:18:53.014Z,34.26
2018-05-13T13:21:20.682Z,33.71
2018-05-13T13:23:48.427Z,35.96
2018-05-13T13:26:16.025Z,36.00
2018-05-13T13:28:43.696Z,36.18
2018-05-13T13:31:11.351Z,35.09
2018-05-13T13:33:39.018Z,35.97
2018-05-13T13:36:06.664Z,35.15
2018-05-13T13:38:34.308Z,36.93
2018-05-13T13:41:01.929Z,36.57
2018-05-13T13:43:29.623Z,38.60
2018-05-13T13:45:57.293Z,38.81
2018-05-13T13:48:24.908Z,40.40
2018-05-13T13:50:52.589Z,40.59
2018-05-13T13:53:20.251Z,42.52
2018-05-13T13:55:47.877Z,42.18
2018-05-13T13:58:15.529Z,41.43
2018-05-13T14:00:43.216Z,40.89
2018-05-13T14:03:10.899Z,41.15
2018-05-13T14:05:38.522Z,41.75
2018-05-13T14:08:06.229Z,43.63
2018-05-13T14:10:35.072Z,46.26
2018-05-13T14:13:02.828Z,48.56
2018-05-13T14:15:30.446Z,50.56
2018-05-13T14:17:58.146Z,53.11
2018-05-13T14:20:25.805Z,56.55
2018-05-13T14:22:53.518Z,58.98
2018-05-13T14:25:21.250Z,60.35
2018-05-13T14:27:49.001Z,61.78
2018-05-13T14:30:16.647Z,65.40
2018-05-13T14:32:44.266Z,66.83
2018-05-13T14:35:11.922Z,68.41
2018-05-13T14:37:39.594Z,68.58
2018-05-13T14:40:07.253Z,66.36
2018-05-13T14:42:34.926Z,69.25
2018-05-13T14:45:03.590Z,68.16
2018-05-13T14:47:31.550Z,67.03
2018-05-13T14:49:59.239Z,67.52
2018-05-13T14:52:27.865Z,64.77
2018-05-13T14:54:55.614Z,66.28
2018-05-13T14:57:24.583Z,64.41
2018-05-13T14:59:53.527Z,65.30
2018-05-13T15:02:21.953Z,62.25
2018-05-13T15:04:50.630Z,59.28
2018-05-13T15:07:31.163Z,59.89
2018-05-13T15:09:58.881Z,62.79
2018-05-13T15:12:26.557Z,63.62
2018-05-13T15:14:54.572Z,63.55
2018-05-13T15:17:22.269Z,65.84
2018-05-13T15:19:51.583Z,68.88
2018-05-13T15:22:19.416Z,72.15
2018-05-13T15:24:47.133Z,71.85
2018-05-13T15:27:15.767Z,70.11
2018-05-13T15:29:43.469Z,72.28
2018-05-13T15:32:12.425Z,71.84
2018-05-13T15:34:40.525Z,73.28
2018-05-13T15:37:08.352Z,70.21
2018-05-13T15:39:36.011Z,69.47
2018-05-13T15:42:03.817Z,70.86
2018-05-13T15:44:31.488Z,69.48
2018-05-13T15:47:00.597Z,73.95
2018-05-13T15:49:28.301Z,74.06
2018-05-13T15:51:56.666Z,75.04
2018-05-13T15:54:26.413Z,75.33
2018-05-13T15:56:55.471Z,74.93
2018-05-13T15:59:24.139Z,74.00
2018-05-13T16:01:51.911Z,71.34
2018-05-13T16:04:19.642Z,71.58
2018-05-13T16:06:47.657Z,72.30
2018-05-13T16:09:15.342Z,73.64
2018-05-13T16:11:43.689Z,73.27
2018-05-13T16:14:12.466Z,73.41
2018-05-13T16:16:40.113Z,73.15
2018-05-13T16:19:10.008Z,72.01
2018-05-13T16:21:37.735Z,72.23
2018-05-13T16:24:05.475Z,72.36
2018-05-13T16:26:33.358Z,73.02
2018-05-13T16:29:01.088Z,73.13
2018-05-13T16:31:28.849Z,72.69
2018-05-13T16:33:56.706Z,73.71
2018-05-13T16:36:25.128Z,73.11
2018-05-13T16:38:53.651Z,72.88
2018-05-13T16:41:21.319Z,73.50
2018-05-13T16:43:49.089Z,72.97
2018-05-13T16:46:16.816Z,73.84
2018-05-13T16:48:44.487Z,73.93
2018-05-13T16:51:12.355Z,73.93
2018-05-13T16:53:41.157Z,72.06
2018-05-13T16:56:08.886Z,72.80
2018-05-13T16:58:36.572Z,73.62
2018-05-13T17:01:04.274Z,74.44
2018-05-13T17:03:31.978Z,75.50
2018-05-13T17:06:00.725Z,77.36
2018-05-13T17:08:28.438Z,75.70
2018-05-13T17:10:56.081Z,75.77
2018-05-13T17:13:23.851Z,75.04
2018-05-13T17:15:51.609Z,77.59
2018-05-13T17:18:19.347Z,76.67
2018-05-13T17:20:47.093Z,75.52
2018-05-13T17:23:14.694Z,76.63
2018-05-13T17:25:42.415Z,71.80
2018-05-13T17:28:11.857Z,71.18
2018-05-13T17:30:39.721Z,73.10
2018-05-13T17:33:07.434Z,78.06
2018-05-13T17:35:35.117Z,74.21
2018-05-13T17:38:02.740Z,64.18
2018-05-13T17:40:30.675Z,64.81
2018-05-13T17:42:58.370Z,60.08
2018-05-13T17:45:26.105Z,58.84
2018-05-13T17:47:53.953Z,63.00
2018-05-13T17:50:21.669Z,64.04
2018-05-13T17:52:49.389Z,65.10
2018-05-13T17:55:17.827Z,60.79
2018-05-13T17:57:45.675Z,59.93
2018-05-13T18:00:13.514Z,61.29
2018-05-13T18:02:41.593Z,64.68
2018-05-13T18:05:11.219Z,67.91
2018-05-13T18:07:38.960Z,69.99
2018-05-13T18:10:06.679Z,71.16
2018-05-13T18:12:34.371Z,72.19
2018-05-13T18:15:02.089Z,74.18
2018-05-13T18:17:29.769Z,75.29
2018-05-13T18:19:57.684Z,77.09
2018-05-13T18:22:25.853Z,77.81
2018-05-13T18:24:54.211Z,77.67
2018-05-13T18:27:23.567Z,78.72
2018-05-13T18:29:51.381Z,78.75
2018-05-13T18:32:19.116Z,79.99
2018-05-13T18:34:47.958Z,79.72
2018-05-13T18:37:16.069Z,79.88
2018-05-13T18:39:44.617Z,80.41
2018-05-13T18:42:14.430Z,80.66
2018-05-13T18:44:43.725Z,80.35
2018-05-13T18:47:11.654Z,79.89
2018-05-13T18:49:39.513Z,79.98
2018-05-13T18:52:08.239Z,81.76
2018-05-13T18:54:36.433Z,81.78
2018-05-13T18:57:04.499Z,81.80
2018-05-13T18:59:34.328Z,83.48
2018-05-13T19:02:02.268Z,82.28
2018-05-13T19:04:30.228Z,83.11
2018-05-13T19:06:58.672Z,83.26
2018-05-13T19:09:26.870Z,82.80
2018-05-13T19:11:54.874Z,82.82
2018-05-13T19:14:23.274Z,82.57
2018-05-13T19:16:52.010Z,82.11
2018-05-13T19:19:20.023Z,82.43
2018-05-13T19:21:47.770Z,82.12
2018-05-13T19:24:16.766Z,82.47
2018-05-13T19:26:44.573Z,82.46
2018-05-13T19:29:12.510Z,82.12
2018-05-13T19:31:41.617Z,82.20
2018-05-13T19:34:09.521Z,82.32
2018-05-13T19:36:38.458Z,82.53
2018-05-13T19:39:06.569Z,82.99
2018-05-13T19:41:34.243Z,81.97
2018-05-13T19:44:01.962Z,82.68
2018-05-13T19:46:29.971Z,83.62
2018-05-13T19:48:57.733Z,84.39
2018-05-13T19:51:26.779Z,83.49
2018-05-13T19:53:57.050Z,83.04
2018-05-13T19:56:27.380Z,83.28
2018-05-13T19:58:56.549Z,82.69
2018-05-13T20:01:26.560Z,83.23
2018-05-13T20:03:55.308Z,83.29
2018-05-13T20:06:25.093Z,83.49
2018-05-13T20:08:56.291Z,84.00
2018-05-13T20:11:24.024Z,82.84
2018-05-13T20:13:51.737Z,83.85
2018-05-13T20:16:20.250Z,83.10
2018-05-13T20:18:48.023Z,82.85
2018-05-13T20:21:15.684Z,83.14
2018-05-13T20:23:43.368Z,82.97
2018-05-13T20:26:11.636Z,83.34
2018-05-13T20:28:40.759Z,82.52
2018-05-13T20:31:08.500Z,84.13
2018-05-13T20:33:36.259Z,84.04
2018-05-13T20:36:04.075Z,82.98
2018-05-13T20:38:31.805Z,83.79
2018-05-13T20:40:59.493Z,83.97
2018-05-13T20:43:27.272Z,84.05
2018-05-13T20:45:54.949Z,83.37
2018-05-13T20:48:22.625Z,82.89
2018-05-13T20:50:50.839Z,82.89
2018-05-13T20:53:18.519Z,83.24
2018-05-13T20:55:46.195Z,84.24
2018-05-13T20:58:14.747Z,84.04
2018-05-13T21:00:42.443Z,82.96
2018-05-13T21:03:10.104Z,82.77
2018-05-13T21:05:37.787Z,82.98
2018-05-13T21:08:05.513Z,83.41
2018-05-13T21:10:33.209Z,83.73
2018-05-13T21:13:00.841Z,83.61
2018-05-13T21:15:28.489Z,83.21
2018-05-13T21:17:56.146Z,83.15
2018-05-13T21:20:23.829Z,83.23
2018-05-13T21:22:51.451Z,82.66
2018-05-13T21:25:19.169Z,82.33
2018-05-13T21:27:46.915Z,83.23
2018-05-13T21:30:14.537Z,83.46
2018-05-13T21:32:42.237Z,83.63
2018-05-13T21:35:10.549Z,84.56
2018-05-13T21:37:38.262Z,84.54
2018-05-13T21:40:05.962Z,84.37
2018-05-13T21:42:33.608Z,84.94
2018-05-13T21:45:01.279Z,84.47
2018-05-13T21:47:28.950Z,84.28
2018-05-13T21:49:56.595Z,84.43
2018-05-13T21:52:24.201Z,84.98
2018-05-13T21:54:51.899Z,84.46
2018-05-13T21:57:20.184Z,84.96
2018-05-13T21:59:47.851Z,85.09
2018-05-13T22:02:15.555Z,84.87
2018-05-13T22:04:54.881Z,84.87
2018-05-13T22:07:22.517Z,86.07
2018-05-13T22:09:50.190Z,85.49
2018-05-13T22:12:17.849Z,85.08
2018-05-13T22:14:45.479Z,85.67
2018-05-13T22:17:13.076Z,85.31
2018-05-13T22:19:40.712Z,85.24
2018-05-13T22:22:08.416Z,84.54
2018-05-13T22:24:36.199Z,84.56
2018-05-13T22:27:03.824Z,84.82
2018-05-13T22:29:31.493Z,84.90
2018-05-13T22:31:59.148Z,85.56
2018-05-13T22:34:26.745Z,85.36
2018-05-13T22:36:54.425Z,85.20
2018-05-13T22:39:22.017Z,84.75
2018-05-13T22:41:49.667Z,85.01
2018-05-13T22:44:17.252Z,85.71
2018-05-13T22:46:45.861Z,85.46
2018-05-13T22:49:13.493Z,85.23
2018-05-13T22:51:41.165Z,84.60
2018-05-13T22:54:08.814Z,84.97
2018-05-13T22:56:36.395Z,84.38
2018-05-13T22:59:05.090Z,84.86
2018-05-13T23:01:32.777Z,86.08
2018-05-13T23:04:00.422Z,86.30
2018-05-13T23:06:30.996Z,86.15
2018-05-13T23:08:58.619Z,85.88
2018-05-13T23:11:26.855Z,85.93
2018-05-13T23:13:54.600Z,86.27
2018-05-13T23:16:22.257Z,86.14
2018-05-13T23:18:49.855Z,86.07
2018-05-13T23:21:18.123Z,85.70
2018-05-13T23:23:45.727Z,85.60
2018-05-13T23:26:13.325Z,86.28
2018-05-13T23:28:42.388Z,85.98
2018-05-13T23:31:09.994Z,86.17
2018-05-13T23:33:37.798Z,86.82
2018-05-13T23:36:05.414Z,87.36
2018-05-13T23:38:33.073Z,87.59
2018-05-13T23:41:01.716Z,86.96
2018-05-13T23:43:29.631Z,87.43
2018-05-13T23:45:57.205Z,87.33
2018-05-13T23:48:24.839Z,87.26
2018-05-13T23:50:52.473Z,87.04
2018-05-13T23:53:20.093Z,86.60
2018-05-13T23:55:47.956Z,86.30
2018-05-13T23:58:15.667Z,86.72
